sensor_id;sensor_type;location;lat;lon;timestamp;P1;durP1;ratioP1;P2;durP2;ratioP2
71655;SDS011;59497;48.798;8.816;2023-05-01T00:01:36;7.18;;;4.13;;
71655;SDS011;59497;48.798;8.816;2023-05-01T00:04:01;6.82;;;3.67;;
71655;SDS011;59497;48.798;8.816;2023-05-01T00:06:26;5.20;;;4.23;;
71655;SDS011;59497;48.798;8.816;2023-05-01T00:08:52;5.50;;;3.77;;
71655;SDS011;59497;48.798;8.816;2023-05-01T00:11:17;5.10;;;4.17;;
71655;SDS011;59497;48.798;8.816;2023-05-01T00:13:42;5.77;;;4.07;;
71655;SDS011;59497;48.798;8.816;2023-05-01T00:16:08;5.87;;;4.27;;
71655;SDS011;59497;48.798;8.816;2023-05-01T00:18:33;5.88;;;3.63;;
71655;SDS011;59497;48.798;8.816;2023-05-01T00:20:58;5.50;;;4.07;;
71655;SDS011;59497;48.798;8.816;2023-05-01T00:23:23;5.63;;;4.33;;
71655;SDS011;59497;48.798;8.816;2023-05-01T00:25:48;7.30;;;4.43;;
71655;SDS011;59497;48.798;8.816;2023-05-01T00:28:14;5.67;;;4.13;;
71655;SDS011;59497;48.798;8.816;2023-05-01T00:30:39;4.77;;;3.83;;
71655;SDS011;59497;48.798;8.816;2023-05-01T00:33:04;5.27;;;4.00;;
71655;SDS011;59497;48.798;8.816;2023-05-01T00:35:29;5.37;;;3.77;;
71655;SDS011;59497;48.798;8.816;2023-05-01T00:37:55;4.97;;;3.83;;
71655;SDS011;59497;48.798;8.816;2023-05-01T00:40:20;4.23;;;3.80;;
71655;SDS011;59497;48.798;8.816;2023-05-01T00:42:46;5.70;;;4.10;;
71655;SDS011;59497;48.798;8.816;2023-05-01T00:45:12;5.43;;;3.60;;
71655;SDS011;59497;48.798;8.816;2023-05-01T00:47:38;5.05;;;3.55;;
71655;SDS011;59497;48.798;8.816;2023-05-01T00:50:03;4.27;;;3.60;;
71655;SDS011;59497;48.798;8.816;2023-05-01T00:52:29;5.43;;;3.77;;
71655;SDS011;59497;48.798;8.816;2023-05-01T00:54:54;6.77;;;3.60;;
71655;SDS011;59497;48.798;8.816;2023-05-01T00:57:20;5.10;;;3.90;;
71655;SDS011;59497;48.798;8.816;2023-05-01T00:59:45;5.23;;;3.93;;
71655;SDS011;59497;48.798;8.816;2023-05-01T01:02:11;6.40;;;4.72;;
71655;SDS011;59497;48.798;8.816;2023-05-01T01:04:42;5.30;;;3.93;;
71655;SDS011;59497;48.798;8.816;2023-05-01T01:10:01;5.75;;;4.40;;
71655;SDS011;59497;48.798;8.816;2023-05-01T01:15:01;6.00;;;4.03;;
71655;SDS011;59497;48.798;8.816;2023-05-01T01:17:37;5.63;;;4.43;;
71655;SDS011;59497;48.798;8.816;2023-05-01T01:22:50;5.78;;;4.28;;
71655;SDS011;59497;48.798;8.816;2023-05-01T01:36:13;6.43;;;3.95;;
71655;SDS011;59497;48.798;8.816;2023-05-01T01:38:41;4.80;;;3.85;;
71655;SDS011;59497;48.798;8.816;2023-05-01T01:41:08;4.20;;;3.27;;
71655;SDS011;59497;48.798;8.816;2023-05-01T01:43:45;4.95;;;3.63;;
71655;SDS011;59497;48.798;8.816;2023-05-01T01:46:11;4.95;;;4.00;;
71655;SDS011;59497;48.798;8.816;2023-05-01T01:48:39;5.33;;;4.00;;
71655;SDS011;59497;48.798;8.816;2023-05-01T01:51:07;5.53;;;4.07;;
71655;SDS011;59497;48.798;8.816;2023-05-01T01:53:34;5.72;;;4.03;;
71655;SDS011;59497;48.798;8.816;2023-05-01T01:56:01;6.20;;;3.57;;
71655;SDS011;59497;48.798;8.816;2023-05-01T01:58:27;4.93;;;3.35;;
71655;SDS011;59497;48.798;8.816;2023-05-01T02:00:54;4.30;;;3.75;;
71655;SDS011;59497;48.798;8.816;2023-05-01T02:03:20;5.82;;;4.28;;
71655;SDS011;59497;48.798;8.816;2023-05-01T02:05:46;4.72;;;3.83;;
71655;SDS011;59497;48.798;8.816;2023-05-01T02:08:13;7.47;;;3.70;;
71655;SDS011;59497;48.798;8.816;2023-05-01T02:10:39;7.60;;;4.45;;
71655;SDS011;59497;48.798;8.816;2023-05-01T02:13:05;4.95;;;4.20;;
71655;SDS011;59497;48.798;8.816;2023-05-01T02:15:31;5.23;;;3.70;;
71655;SDS011;59497;48.798;8.816;2023-05-01T02:17:56;4.47;;;3.43;;
71655;SDS011;59497;48.798;8.816;2023-05-01T02:20:22;6.13;;;3.78;;
71655;SDS011;59497;48.798;8.816;2023-05-01T02:22:47;5.07;;;3.67;;
71655;SDS011;59497;48.798;8.816;2023-05-01T02:25:15;4.97;;;4.15;;
71655;SDS011;59497;48.798;8.816;2023-05-01T02:27:45;5.27;;;4.20;;
71655;SDS011;59497;48.798;8.816;2023-05-01T02:30:11;6.55;;;3.83;;
71655;SDS011;59497;48.798;8.816;2023-05-01T02:32:36;6.47;;;4.37;;
71655;SDS011;59497;48.798;8.816;2023-05-01T02:35:01;5.90;;;4.00;;
71655;SDS011;59497;48.798;8.816;2023-05-01T02:37:26;6.27;;;4.70;;
71655;SDS011;59497;48.798;8.816;2023-05-01T02:39:52;7.03;;;4.37;;
71655;SDS011;59497;48.798;8.816;2023-05-01T02:42:18;6.80;;;4.70;;
71655;SDS011;59497;48.798;8.816;2023-05-01T02:44:49;6.38;;;3.90;;
71655;SDS011;59497;48.798;8.816;2023-05-01T02:47:17;5.28;;;4.25;;
71655;SDS011;59497;48.798;8.816;2023-05-01T02:49:43;5.43;;;3.80;;
71655;SDS011;59497;48.798;8.816;2023-05-01T02:52:11;4.97;;;4.20;;
71655;SDS011;59497;48.798;8.816;2023-05-01T02:54:37;4.87;;;3.70;;
71655;SDS011;59497;48.798;8.816;2023-05-01T02:57:03;5.93;;;3.90;;
71655;SDS011;59497;48.798;8.816;2023-05-01T02:59:29;3.92;;;3.53;;
71655;SDS011;59497;48.798;8.816;2023-05-01T03:01:54;5.07;;;3.67;;
71655;SDS011;59497;48.798;8.816;2023-05-01T03:04:19;3.90;;;3.13;;
71655;SDS011;59497;48.798;8.816;2023-05-01T03:06:45;5.50;;;3.87;;
71655;SDS011;59497;48.798;8.816;2023-05-01T03:09:10;4.75;;;3.70;;
71655;SDS011;59497;48.798;8.816;2023-05-01T03:11:35;4.70;;;4.10;;
71655;SDS011;59497;48.798;8.816;2023-05-01T03:14:00;6.30;;;4.33;;
71655;SDS011;59497;48.798;8.816;2023-05-01T03:16:26;7.63;;;4.70;;
71655;SDS011;59497;48.798;8.816;2023-05-01T03:18:51;7.77;;;4.80;;
71655;SDS011;59497;48.798;8.816;2023-05-01T03:21:16;6.20;;;4.47;;
71655;SDS011;59497;48.798;8.816;2023-05-01T03:23:41;7.20;;;4.60;;
71655;SDS011;59497;48.798;8.816;2023-05-01T03:26:06;7.00;;;5.37;;
71655;SDS011;59497;48.798;8.816;2023-05-01T03:28:32;6.93;;;5.17;;
71655;SDS011;59497;48.798;8.816;2023-05-01T03:30:57;7.50;;;5.32;;
71655;SDS011;59497;48.798;8.816;2023-05-01T03:33:22;6.93;;;5.43;;
71655;SDS011;59497;48.798;8.816;2023-05-01T03:35:48;6.53;;;5.20;;
71655;SDS011;59497;48.798;8.816;2023-05-01T03:38:13;6.13;;;5.07;;
71655;SDS011;59497;48.798;8.816;2023-05-01T03:40:38;5.90;;;4.60;;
71655;SDS011;59497;48.798;8.816;2023-05-01T03:43:03;5.53;;;3.80;;
71655;SDS011;59497;48.798;8.816;2023-05-01T03:45:28;5.13;;;3.50;;
71655;SDS011;59497;48.798;8.816;2023-05-01T03:47:54;4.43;;;3.70;;
71655;SDS011;59497;48.798;8.816;2023-05-01T03:50:19;5.03;;;3.73;;
71655;SDS011;59497;48.798;8.816;2023-05-01T03:52:44;6.20;;;4.47;;
71655;SDS011;59497;48.798;8.816;2023-05-01T03:55:09;5.15;;;3.85;;
71655;SDS011;59497;48.798;8.816;2023-05-01T03:57:34;5.45;;;3.70;;
71655;SDS011;59497;48.798;8.816;2023-05-01T04:00:01;4.70;;;3.70;;
71655;SDS011;59497;48.798;8.816;2023-05-01T04:02:26;5.17;;;3.90;;
71655;SDS011;59497;48.798;8.816;2023-05-01T04:04:51;5.18;;;3.90;;
71655;SDS011;59497;48.798;8.816;2023-05-01T04:07:16;5.67;;;4.40;;
71655;SDS011;59497;48.798;8.816;2023-05-01T04:09:42;6.73;;;5.00;;
71655;SDS011;59497;48.798;8.816;2023-05-01T04:12:07;5.60;;;4.73;;
71655;SDS011;59497;48.798;8.816;2023-05-01T04:14:33;5.93;;;4.10;;
71655;SDS011;59497;48.798;8.816;2023-05-01T04:16:58;6.93;;;4.40;;
71655;SDS011;59497;48.798;8.816;2023-05-01T04:19:23;4.70;;;4.20;;
71655;SDS011;59497;48.798;8.816;2023-05-01T04:21:48;5.40;;;4.60;;
71655;SDS011;59497;48.798;8.816;2023-05-01T04:24:13;5.63;;;3.67;;
71655;SDS011;59497;48.798;8.816;2023-05-01T04:26:40;4.90;;;4.13;;
71655;SDS011;59497;48.798;8.816;2023-05-01T04:29:06;5.10;;;4.22;;
71655;SDS011;59497;48.798;8.816;2023-05-01T04:31:31;5.77;;;4.47;;
71655;SDS011;59497;48.798;8.816;2023-05-01T04:33:57;7.13;;;4.30;;
71655;SDS011;59497;48.798;8.816;2023-05-01T04:36:22;4.63;;;4.03;;
71655;SDS011;59497;48.798;8.816;2023-05-01T04:38:48;6.88;;;4.00;;
71655;SDS011;59497;48.798;8.816;2023-05-01T04:41:13;5.77;;;4.33;;
71655;SDS011;59497;48.798;8.816;2023-05-01T04:43:38;6.37;;;4.33;;
71655;SDS011;59497;48.798;8.816;2023-05-01T04:46:03;5.60;;;4.20;;
71655;SDS011;59497;48.798;8.816;2023-05-01T04:48:28;6.53;;;4.50;;
71655;SDS011;59497;48.798;8.816;2023-05-01T04:50:54;5.97;;;4.13;;
71655;SDS011;59497;48.798;8.816;2023-05-01T04:53:19;5.90;;;4.40;;
71655;SDS011;59497;48.798;8.816;2023-05-01T04:55:44;5.27;;;4.33;;
71655;SDS011;59497;48.798;8.816;2023-05-01T04:58:10;6.40;;;4.37;;
71655;SDS011;59497;48.798;8.816;2023-05-01T05:00:35;6.10;;;4.70;;
71655;SDS011;59497;48.798;8.816;2023-05-01T05:03:00;6.63;;;5.13;;
71655;SDS011;59497;48.798;8.816;2023-05-01T05:05:26;6.00;;;4.50;;
71655;SDS011;59497;48.798;8.816;2023-05-01T05:07:51;6.93;;;5.17;;
71655;SDS011;59497;48.798;8.816;2023-05-01T05:10:16;6.23;;;5.20;;
71655;SDS011;59497;48.798;8.816;2023-05-01T05:12:41;6.63;;;5.22;;
71655;SDS011;59497;48.798;8.816;2023-05-01T05:15:07;7.07;;;5.10;;
71655;SDS011;59497;48.798;8.816;2023-05-01T05:17:32;7.37;;;4.93;;
71655;SDS011;59497;48.798;8.816;2023-05-01T05:19:57;6.67;;;5.00;;
71655;SDS011;59497;48.798;8.816;2023-05-01T05:22:22;6.30;;;5.13;;
71655;SDS011;59497;48.798;8.816;2023-05-01T05:24:53;6.93;;;4.80;;
71655;SDS011;59497;48.798;8.816;2023-05-01T05:27:19;6.18;;;4.55;;
71655;SDS011;59497;48.798;8.816;2023-05-01T05:29:45;6.50;;;5.10;;
71655;SDS011;59497;48.798;8.816;2023-05-01T05:32:10;6.60;;;5.27;;
71655;SDS011;59497;48.798;8.816;2023-05-01T05:34:35;5.60;;;4.90;;
71655;SDS011;59497;48.798;8.816;2023-05-01T05:37:01;6.47;;;5.33;;
71655;SDS011;59497;48.798;8.816;2023-05-01T05:39:26;7.07;;;5.57;;
71655;SDS011;59497;48.798;8.816;2023-05-01T05:41:51;6.60;;;4.80;;
71655;SDS011;59497;48.798;8.816;2023-05-01T05:44:17;7.93;;;5.20;;
71655;SDS011;59497;48.798;8.816;2023-05-01T05:46:43;5.77;;;4.43;;
71655;SDS011;59497;48.798;8.816;2023-05-01T05:49:08;6.07;;;4.93;;
71655;SDS011;59497;48.798;8.816;2023-05-01T05:51:33;6.80;;;5.30;;
71655;SDS011;59497;48.798;8.816;2023-05-01T05:53:58;9.10;;;5.93;;
71655;SDS011;59497;48.798;8.816;2023-05-01T05:56:23;7.73;;;5.27;;
71655;SDS011;59497;48.798;8.816;2023-05-01T05:58:49;7.40;;;5.40;;
71655;SDS011;59497;48.798;8.816;2023-05-01T06:01:14;6.05;;;4.85;;
71655;SDS011;59497;48.798;8.816;2023-05-01T06:03:40;6.60;;;4.55;;
71655;SDS011;59497;48.798;8.816;2023-05-01T06:06:05;10.03;;;5.70;;
71655;SDS011;59497;48.798;8.816;2023-05-01T06:08:30;8.53;;;5.77;;
71655;SDS011;59497;48.798;8.816;2023-05-01T06:10:56;7.90;;;6.40;;
71655;SDS011;59497;48.798;8.816;2023-05-01T06:13:22;7.40;;;5.60;;
71655;SDS011;59497;48.798;8.816;2023-05-01T06:15:47;7.97;;;6.10;;
71655;SDS011;59497;48.798;8.816;2023-05-01T06:18:13;7.73;;;5.33;;
71655;SDS011;59497;48.798;8.816;2023-05-01T06:20:38;10.73;;;6.87;;
71655;SDS011;59497;48.798;8.816;2023-05-01T06:23:03;10.20;;;7.78;;
71655;SDS011;59497;48.798;8.816;2023-05-01T06:25:29;11.33;;;7.70;;
71655;SDS011;59497;48.798;8.816;2023-05-01T06:27:54;9.30;;;7.47;;
71655;SDS011;59497;48.798;8.816;2023-05-01T06:30:19;9.40;;;7.67;;
71655;SDS011;59497;48.798;8.816;2023-05-01T06:32:45;10.05;;;7.15;;
71655;SDS011;59497;48.798;8.816;2023-05-01T06:35:11;7.07;;;6.20;;
71655;SDS011;59497;48.798;8.816;2023-05-01T06:37:36;8.90;;;6.33;;
71655;SDS011;59497;48.798;8.816;2023-05-01T06:40:02;7.78;;;6.97;;
71655;SDS011;59497;48.798;8.816;2023-05-01T06:42:28;9.50;;;6.50;;
71655;SDS011;59497;48.798;8.816;2023-05-01T06:44:53;13.07;;;7.90;;
71655;SDS011;59497;48.798;8.816;2023-05-01T06:47:18;10.53;;;7.30;;
71655;SDS011;59497;48.798;8.816;2023-05-01T06:49:44;9.53;;;7.07;;
71655;SDS011;59497;48.798;8.816;2023-05-01T06:52:09;9.70;;;6.70;;
71655;SDS011;59497;48.798;8.816;2023-05-01T06:54:34;9.83;;;6.80;;
71655;SDS011;59497;48.798;8.816;2023-05-01T06:56:59;9.90;;;7.40;;
71655;SDS011;59497;48.798;8.816;2023-05-01T06:59:25;9.33;;;7.20;;
71655;SDS011;59497;48.798;8.816;2023-05-01T07:01:50;9.18;;;6.55;;
71655;SDS011;59497;48.798;8.816;2023-05-01T07:04:16;13.97;;;8.17;;
71655;SDS011;59497;48.798;8.816;2023-05-01T07:06:41;10.37;;;7.27;;
71655;SDS011;59497;48.798;8.816;2023-05-01T07:09:06;8.50;;;6.65;;
71655;SDS011;59497;48.798;8.816;2023-05-01T07:11:31;8.27;;;6.83;;
71655;SDS011;59497;48.798;8.816;2023-05-01T07:13:57;9.23;;;6.85;;
71655;SDS011;59497;48.798;8.816;2023-05-01T07:16:22;9.67;;;7.07;;
71655;SDS011;59497;48.798;8.816;2023-05-01T07:18:47;9.73;;;7.23;;
71655;SDS011;59497;48.798;8.816;2023-05-01T07:21:12;9.87;;;7.20;;
71655;SDS011;59497;48.798;8.816;2023-05-01T07:23:37;7.77;;;6.13;;
71655;SDS011;59497;48.798;8.816;2023-05-01T07:26:03;7.17;;;6.13;;
71655;SDS011;59497;48.798;8.816;2023-05-01T07:28:28;9.57;;;6.33;;
71655;SDS011;59497;48.798;8.816;2023-05-01T07:30:53;8.33;;;6.10;;
71655;SDS011;59497;48.798;8.816;2023-05-01T07:33:19;9.03;;;5.97;;
71655;SDS011;59497;48.798;8.816;2023-05-01T07:35:44;7.53;;;6.30;;
71655;SDS011;59497;48.798;8.816;2023-05-01T07:38:09;9.53;;;6.33;;
71655;SDS011;59497;48.798;8.816;2023-05-01T07:40:34;7.70;;;5.87;;
71655;SDS011;59497;48.798;8.816;2023-05-01T07:43:00;6.35;;;5.15;;
71655;SDS011;59497;48.798;8.816;2023-05-01T07:45:26;8.43;;;5.70;;
71655;SDS011;59497;48.798;8.816;2023-05-01T07:47:51;6.38;;;5.13;;
71655;SDS011;59497;48.798;8.816;2023-05-01T07:50:17;7.83;;;5.57;;
71655;SDS011;59497;48.798;8.816;2023-05-01T07:52:42;6.40;;;5.10;;
71655;SDS011;59497;48.798;8.816;2023-05-01T07:55:08;6.57;;;5.27;;
71655;SDS011;59497;48.798;8.816;2023-05-01T07:57:33;6.43;;;5.83;;
71655;SDS011;59497;48.798;8.816;2023-05-01T07:59:59;6.43;;;5.70;;
71655;SDS011;59497;48.798;8.816;2023-05-01T08:02:24;7.23;;;5.23;;
71655;SDS011;59497;48.798;8.816;2023-05-01T08:04:49;6.40;;;4.67;;
71655;SDS011;59497;48.798;8.816;2023-05-01T08:07:14;6.23;;;5.40;;
71655;SDS011;59497;48.798;8.816;2023-05-01T08:09:40;6.77;;;5.37;;
71655;SDS011;59497;48.798;8.816;2023-05-01T08:12:05;5.80;;;4.37;;
71655;SDS011;59497;48.798;8.816;2023-05-01T08:14:30;5.68;;;5.00;;
71655;SDS011;59497;48.798;8.816;2023-05-01T08:16:55;5.17;;;4.13;;
71655;SDS011;59497;48.798;8.816;2023-05-01T08:19:21;4.97;;;4.13;;
71655;SDS011;59497;48.798;8.816;2023-05-01T08:21:47;5.50;;;4.20;;
71655;SDS011;59497;48.798;8.816;2023-05-01T08:24:12;6.80;;;4.87;;
71655;SDS011;59497;48.798;8.816;2023-05-01T08:26:37;4.75;;;4.30;;
71655;SDS011;59497;48.798;8.816;2023-05-01T08:29:02;6.10;;;4.17;;
71655;SDS011;59497;48.798;8.816;2023-05-01T08:31:27;3.80;;;3.40;;
71655;SDS011;59497;48.798;8.816;2023-05-01T08:33:53;5.10;;;4.60;;
71655;SDS011;59497;48.798;8.816;2023-05-01T08:36:18;4.27;;;3.83;;
71655;SDS011;59497;48.798;8.816;2023-05-01T08:38:43;5.47;;;4.57;;
71655;SDS011;59497;48.798;8.816;2023-05-01T08:41:08;6.03;;;4.13;;
71655;SDS011;59497;48.798;8.816;2023-05-01T08:43:34;5.53;;;3.87;;
71655;SDS011;59497;48.798;8.816;2023-05-01T08:45:59;4.17;;;3.63;;
71655;SDS011;59497;48.798;8.816;2023-05-01T08:48:25;5.28;;;4.07;;
71655;SDS011;59497;48.798;8.816;2023-05-01T08:50:51;5.57;;;4.00;;
71655;SDS011;59497;48.798;8.816;2023-05-01T08:53:18;5.47;;;4.03;;
71655;SDS011;59497;48.798;8.816;2023-05-01T08:55:44;4.72;;;3.63;;
71655;SDS011;59497;48.798;8.816;2023-05-01T08:58:11;5.30;;;4.05;;
71655;SDS011;59497;48.798;8.816;2023-05-01T09:00:37;5.47;;;4.17;;
71655;SDS011;59497;48.798;8.816;2023-05-01T09:03:03;5.07;;;4.18;;
71655;SDS011;59497;48.798;8.816;2023-05-01T09:05:30;5.38;;;4.43;;
71655;SDS011;59497;48.798;8.816;2023-05-01T09:07:55;4.93;;;4.13;;
71655;SDS011;59497;48.798;8.816;2023-05-01T09:10:22;4.30;;;3.83;;
71655;SDS011;59497;48.798;8.816;2023-05-01T09:12:50;5.32;;;3.50;;
71655;SDS011;59497;48.798;8.816;2023-05-01T09:15:16;4.00;;;3.70;;
71655;SDS011;59497;48.798;8.816;2023-05-01T09:17:41;5.07;;;3.65;;
71655;SDS011;59497;48.798;8.816;2023-05-01T09:20:08;4.40;;;4.00;;
71655;SDS011;59497;48.798;8.816;2023-05-01T09:22:34;3.90;;;3.60;;
71655;SDS011;59497;48.798;8.816;2023-05-01T09:24:59;4.37;;;3.97;;
71655;SDS011;59497;48.798;8.816;2023-05-01T09:27:43;4.37;;;3.80;;
71655;SDS011;59497;48.798;8.816;2023-05-01T09:30:09;4.25;;;3.38;;
71655;SDS011;59497;48.798;8.816;2023-05-01T09:32:34;4.23;;;3.77;;
71655;SDS011;59497;48.798;8.816;2023-05-01T09:35:34;5.22;;;3.67;;
71655;SDS011;59497;48.798;8.816;2023-05-01T09:37:52;4.33;;;3.33;;
71655;SDS011;59497;48.798;8.816;2023-05-01T09:40:17;3.77;;;3.37;;
71655;SDS011;59497;48.798;8.816;2023-05-01T09:42:49;4.00;;;3.47;;
71655;SDS011;59497;48.798;8.816;2023-05-01T09:45:15;3.60;;;3.30;;
71655;SDS011;59497;48.798;8.816;2023-05-01T09:47:41;4.22;;;3.83;;
71655;SDS011;59497;48.798;8.816;2023-05-01T09:50:07;4.13;;;3.60;;
71655;SDS011;59497;48.798;8.816;2023-05-01T09:52:33;5.30;;;3.85;;
71655;SDS011;59497;48.798;8.816;2023-05-01T09:55:11;3.97;;;3.53;;
71655;SDS011;59497;48.798;8.816;2023-05-01T09:57:37;3.80;;;3.20;;
71655;SDS011;59497;48.798;8.816;2023-05-01T10:00:03;4.40;;;3.22;;
71655;SDS011;59497;48.798;8.816;2023-05-01T10:02:32;3.83;;;3.40;;
71655;SDS011;59497;48.798;8.816;2023-05-01T10:04:58;4.15;;;3.42;;
71655;SDS011;59497;48.798;8.816;2023-05-01T10:07:24;4.37;;;3.63;;
71655;SDS011;59497;48.798;8.816;2023-05-01T10:09:50;4.65;;;3.92;;
71655;SDS011;59497;48.798;8.816;2023-05-01T10:12:22;4.40;;;3.53;;
71655;SDS011;59497;48.798;8.816;2023-05-01T10:14:49;4.30;;;3.90;;
71655;SDS011;59497;48.798;8.816;2023-05-01T10:17:17;3.95;;;3.55;;
71655;SDS011;59497;48.798;8.816;2023-05-01T10:19:46;4.15;;;3.67;;
71655;SDS011;59497;48.798;8.816;2023-05-01T10:22:11;3.90;;;3.50;;
71655;SDS011;59497;48.798;8.816;2023-05-01T10:24:37;3.80;;;3.50;;
71655;SDS011;59497;48.798;8.816;2023-05-01T10:27:04;5.45;;;4.00;;
71655;SDS011;59497;48.798;8.816;2023-05-01T10:29:30;4.80;;;4.20;;
71655;SDS011;59497;48.798;8.816;2023-05-01T10:31:58;8.52;;;4.70;;
71655;SDS011;59497;48.798;8.816;2023-05-01T10:34:23;4.30;;;3.90;;
71655;SDS011;59497;48.798;8.816;2023-05-01T10:36:55;6.10;;;3.70;;
71655;SDS011;59497;48.798;8.816;2023-05-01T10:39:31;4.35;;;3.95;;
71655;SDS011;59497;48.798;8.816;2023-05-01T10:44:22;5.20;;;3.55;;
71655;SDS011;59497;48.798;8.816;2023-05-01T10:46:47;3.92;;;3.53;;
71655;SDS011;59497;48.798;8.816;2023-05-01T10:49:12;4.88;;;4.38;;
71655;SDS011;59497;48.798;8.816;2023-05-01T10:51:56;5.70;;;5.20;;
71655;SDS011;59497;48.798;8.816;2023-05-01T10:54:28;7.32;;;5.13;;
71655;SDS011;59497;48.798;8.816;2023-05-01T10:56:54;5.80;;;5.17;;
71655;SDS011;59497;48.798;8.816;2023-05-01T11:02:21;5.57;;;4.95;;
71655;SDS011;59497;48.798;8.816;2023-05-01T11:04:50;6.22;;;4.97;;
71655;SDS011;59497;48.798;8.816;2023-05-01T11:07:16;6.20;;;5.10;;
71655;SDS011;59497;48.798;8.816;2023-05-01T11:09:43;6.93;;;5.30;;
71655;SDS011;59497;48.798;8.816;2023-05-01T11:12:10;6.80;;;5.13;;
71655;SDS011;59497;48.798;8.816;2023-05-01T11:22:32;7.47;;;4.40;;
71655;SDS011;59497;48.798;8.816;2023-05-01T11:24:57;4.20;;;3.80;;
71655;SDS011;59497;48.798;8.816;2023-05-01T11:27:22;5.03;;;4.40;;
71655;SDS011;59497;48.798;8.816;2023-05-01T11:29:48;6.37;;;5.07;;
71655;SDS011;59497;48.798;8.816;2023-05-01T11:32:17;4.63;;;4.00;;
71655;SDS011;59497;48.798;8.816;2023-05-01T11:34:42;4.60;;;4.20;;
71655;SDS011;59497;48.798;8.816;2023-05-01T11:37:08;4.23;;;3.83;;
71655;SDS011;59497;48.798;8.816;2023-05-01T11:39:33;6.60;;;4.83;;
71655;SDS011;59497;48.798;8.816;2023-05-01T11:42:07;9.07;;;5.23;;
71655;SDS011;59497;48.798;8.816;2023-05-01T11:44:33;5.97;;;5.07;;
71655;SDS011;59497;48.798;8.816;2023-05-01T11:46:58;6.67;;;5.23;;
71655;SDS011;59497;48.798;8.816;2023-05-01T11:49:25;6.47;;;5.88;;
71655;SDS011;59497;48.798;8.816;2023-05-01T11:51:57;6.27;;;5.43;;
71655;SDS011;59497;48.798;8.816;2023-05-01T11:54:23;7.30;;;5.18;;
71655;SDS011;59497;48.798;8.816;2023-05-01T11:56:48;6.67;;;5.87;;
71655;SDS011;59497;48.798;8.816;2023-05-01T11:59:21;7.68;;;5.55;;
71655;SDS011;59497;48.798;8.816;2023-05-01T12:01:46;7.03;;;5.90;;
71655;SDS011;59497;48.798;8.816;2023-05-01T12:04:12;6.53;;;5.43;;
71655;SDS011;59497;48.798;8.816;2023-05-01T12:06:38;6.70;;;5.57;;
71655;SDS011;59497;48.798;8.816;2023-05-01T12:09:16;10.00;;;5.85;;
71655;SDS011;59497;48.798;8.816;2023-05-01T12:11:42;11.10;;;6.73;;
71655;SDS011;59497;48.798;8.816;2023-05-01T12:14:08;10.98;;;6.47;;
71655;SDS011;59497;48.798;8.816;2023-05-01T12:16:34;10.30;;;6.80;;
71655;SDS011;59497;48.798;8.816;2023-05-01T12:18:59;10.07;;;6.72;;
71655;SDS011;59497;48.798;8.816;2023-05-01T12:21:24;9.17;;;6.97;;
71655;SDS011;59497;48.798;8.816;2023-05-01T12:23:52;10.68;;;7.50;;
71655;SDS011;59497;48.798;8.816;2023-05-01T12:26:19;10.43;;;6.70;;
71655;SDS011;59497;48.798;8.816;2023-05-01T12:28:52;7.87;;;6.23;;
71655;SDS011;59497;48.798;8.816;2023-05-01T12:31:17;12.82;;;7.72;;
71655;SDS011;59497;48.798;8.816;2023-05-01T12:33:51;20.48;;;10.43;;
71655;SDS011;59497;48.798;8.816;2023-05-01T12:36:16;11.02;;;7.75;;
71655;SDS011;59497;48.798;8.816;2023-05-01T12:38:52;9.63;;;6.97;;
71655;SDS011;59497;48.798;8.816;2023-05-01T12:41:19;10.32;;;6.90;;
71655;SDS011;59497;48.798;8.816;2023-05-01T12:43:44;7.57;;;5.90;;
71655;SDS011;59497;48.798;8.816;2023-05-01T12:46:12;7.70;;;6.63;;
71655;SDS011;59497;48.798;8.816;2023-05-01T12:48:38;9.23;;;7.13;;
71655;SDS011;59497;48.798;8.816;2023-05-01T12:51:03;9.77;;;7.43;;
71655;SDS011;59497;48.798;8.816;2023-05-01T12:53:29;6.80;;;6.10;;
71655;SDS011;59497;48.798;8.816;2023-05-01T12:55:55;8.80;;;6.40;;
71655;SDS011;59497;48.798;8.816;2023-05-01T12:58:21;11.20;;;6.22;;
71655;SDS011;59497;48.798;8.816;2023-05-01T13:00:50;7.90;;;6.23;;
71655;SDS011;59497;48.798;8.816;2023-05-01T13:03:19;8.27;;;6.53;;
71655;SDS011;59497;48.798;8.816;2023-05-01T13:06:04;6.65;;;5.55;;
71655;SDS011;59497;48.798;8.816;2023-05-01T13:10:55;6.67;;;5.97;;
71655;SDS011;59497;48.798;8.816;2023-05-01T13:13:24;6.15;;;5.55;;
71655;SDS011;59497;48.798;8.816;2023-05-01T13:15:50;6.40;;;5.38;;
71655;SDS011;59497;48.798;8.816;2023-05-01T13:18:16;6.93;;;5.33;;
71655;SDS011;59497;48.798;8.816;2023-05-01T13:20:41;7.47;;;6.37;;
71655;SDS011;59497;48.798;8.816;2023-05-01T13:23:09;7.53;;;6.53;;
71655;SDS011;59497;48.798;8.816;2023-05-01T13:25:36;7.50;;;6.03;;
71655;SDS011;59497;48.798;8.816;2023-05-01T13:28:02;8.67;;;5.97;;
71655;SDS011;59497;48.798;8.816;2023-05-01T13:30:31;8.30;;;6.47;;
71655;SDS011;59497;48.798;8.816;2023-05-01T13:32:56;7.28;;;5.75;;
71655;SDS011;59497;48.798;8.816;2023-05-01T13:35:22;6.30;;;5.33;;
71655;SDS011;59497;48.798;8.816;2023-05-01T13:37:48;7.18;;;5.75;;
71655;SDS011;59497;48.798;8.816;2023-05-01T13:40:13;7.33;;;6.20;;
71655;SDS011;59497;48.798;8.816;2023-05-01T13:42:38;6.13;;;5.50;;
71655;SDS011;59497;48.798;8.816;2023-05-01T13:45:05;6.65;;;5.97;;
71655;SDS011;59497;48.798;8.816;2023-05-01T13:47:30;6.73;;;5.80;;
71655;SDS011;59497;48.798;8.816;2023-05-01T13:49:56;8.23;;;6.40;;
71655;SDS011;59497;48.798;8.816;2023-05-01T13:52:21;8.77;;;6.03;;
71655;SDS011;59497;48.798;8.816;2023-05-01T13:54:47;7.68;;;5.80;;
71655;SDS011;59497;48.798;8.816;2023-05-01T13:57:12;7.07;;;5.90;;
71655;SDS011;59497;48.798;8.816;2023-05-01T13:59:39;10.63;;;7.80;;
71655;SDS011;59497;48.798;8.816;2023-05-01T14:02:47;10.70;;;7.25;;
71655;SDS011;59497;48.798;8.816;2023-05-01T14:04:53;14.27;;;8.87;;
71655;SDS011;59497;48.798;8.816;2023-05-01T14:07:19;8.50;;;6.30;;
71655;SDS011;59497;48.798;8.816;2023-05-01T14:09:45;8.15;;;6.30;;
71655;SDS011;59497;48.798;8.816;2023-05-01T14:12:13;8.50;;;6.88;;
71655;SDS011;59497;48.798;8.816;2023-05-01T14:14:44;10.90;;;7.90;;
71655;SDS011;59497;48.798;8.816;2023-05-01T14:17:12;9.70;;;7.32;;
71655;SDS011;59497;48.798;8.816;2023-05-01T14:19:37;8.60;;;7.13;;
71655;SDS011;59497;48.798;8.816;2023-05-01T14:22:03;8.50;;;6.50;;
71655;SDS011;59497;48.798;8.816;2023-05-01T14:24:32;8.25;;;7.13;;
71655;SDS011;59497;48.798;8.816;2023-05-01T14:26:59;8.10;;;6.50;;
71655;SDS011;59497;48.798;8.816;2023-05-01T14:29:25;8.80;;;7.78;;
71655;SDS011;59497;48.798;8.816;2023-05-01T14:31:52;8.75;;;7.57;;
71655;SDS011;59497;48.798;8.816;2023-05-01T14:34:18;9.73;;;8.23;;
71655;SDS011;59497;48.798;8.816;2023-05-01T14:36:44;9.10;;;6.93;;
71655;SDS011;59497;48.798;8.816;2023-05-01T14:39:09;7.03;;;6.17;;
71655;SDS011;59497;48.798;8.816;2023-05-01T14:41:34;9.63;;;6.40;;
71655;SDS011;59497;48.798;8.816;2023-05-01T14:44:03;6.85;;;5.85;;
71655;SDS011;59497;48.798;8.816;2023-05-01T14:46:29;8.80;;;6.95;;
71655;SDS011;59497;48.798;8.816;2023-05-01T14:48:55;9.25;;;7.40;;
71655;SDS011;59497;48.798;8.816;2023-05-01T14:51:20;8.63;;;6.67;;
71655;SDS011;59497;48.798;8.816;2023-05-01T14:53:46;8.97;;;8.07;;
71655;SDS011;59497;48.798;8.816;2023-05-01T14:56:11;7.40;;;6.57;;
71655;SDS011;59497;48.798;8.816;2023-05-01T14:58:36;7.25;;;6.50;;
71655;SDS011;59497;48.798;8.816;2023-05-01T15:01:02;8.63;;;6.50;;
71655;SDS011;59497;48.798;8.816;2023-05-01T15:03:27;8.93;;;6.70;;
71655;SDS011;59497;48.798;8.816;2023-05-01T15:05:52;8.23;;;6.70;;
71655;SDS011;59497;48.798;8.816;2023-05-01T15:08:18;8.48;;;7.15;;
71655;SDS011;59497;48.798;8.816;2023-05-01T15:10:43;10.00;;;6.70;;
71655;SDS011;59497;48.798;8.816;2023-05-01T15:13:09;8.50;;;6.63;;
71655;SDS011;59497;48.798;8.816;2023-05-01T15:15:34;9.53;;;6.67;;